Huron Regional Airport

Airport
ICAO code: 
KHON
Summary
ICAO Region: 
NAM
Territory: 
Location: 
Huron, South Dakota,
Elevation: 
1289 ft
Coordinates: 
Aerial View: 
44° 23' 5.42" N, 98° 13' 32.236" W
Airport CFIT: 
Altimeter Temperature Error Correction
Metar
Observation
KHON 020955Z AUTO 34008KT 10SM BKN080 OVC110 07/02 A2988 RMK AO2 SLP121 T00670022
Station
Huron, Huron Regional Airport
Date/Time
2021-12-02 09:55:00
Wind direction
340°
Wind speed
08 kts
Lowest cloud amount
broken clouds
Temperature
6.7°C
Dew point
2.2°C
Humidity
72%
Weather condition
n/a

Description

Huron Regional Airport is a public use airport located in the city of Huron in Beadle County, South Dakota,.

Climatology

Humid continental climate (Köppen climate classification Dfa) - characterized by four seasons: cold, windy, snowy winters, mild springs, hot, humid summers, and crisp and relatively short autumns. Precipitation reaches its lowest in January and February and peaks in summer and latter half of spring.

Runways

Designator Length Width Surface Rops
17/35 1524 23 CON Yes/Yes
12/30 2195 30 CON Yes/Yes
Airport map: 
Aerial View: 

SKYbrary Partners:

Safety knowledge contributed by: